Hessel, Michigan
Current Conditions -  °F | °C
As of 6:19 PM on Saturday 25 Oct 2014 (Local Time) from KMCD Reporting Station
Broken Clouds Broken Clouds  
Wind Chill: 54°   Ceiling: 6500
Heat Index: 54°   Visibility: 10mi
Dew Point: 33°   Wind: 21mph
Humidity: 44%   Direction: 300°WNW
Pressure: 29.7"   Gusts: 30mph
Location:  46°N, 84.43°W
Report Text: KMCD 252219Z AUTO 30018G26KT 10SM BKN065 12/00 A2970 RMK AO2 T01230004
Loading
Personal Weather Stations






























Interactive Weather Map
Tropical Storm Tracking
New forecast layout! Learn more

10-Day Weather Forecast

Advertisements
Track Severe Weather on mobile